sensor_id;sensor_type;location;lat;lon;timestamp;temperature;humidity
35381;DHT22;21486;51.916;8.378;2022-07-17T18:28:54;26.60;51.50
35381;DHT22;21486;51.916;8.378;2022-07-17T18:31:19;24.30;54.10
35381;DHT22;21486;51.916;8.378;2022-07-17T18:33:45;23.90;55.00
35381;DHT22;21486;51.916;8.378;2022-07-17T18:36:11;24.00;53.70
35381;DHT22;21486;51.916;8.378;2022-07-17T18:38:37;23.90;53.90
35381;DHT22;21486;51.916;8.378;2022-07-17T18:41:02;23.80;56.00
35381;DHT22;21486;51.916;8.378;2022-07-17T18:43:30;23.80;57.70
35381;DHT22;21486;51.916;8.378;2022-07-17T18:45:56;23.60;57.30
35381;DHT22;21486;51.916;8.378;2022-07-17T18:48:24;23.60;56.30
35381;DHT22;21486;51.916;8.378;2022-07-17T18:50:50;23.50;57.80
35381;DHT22;21486;51.916;8.378;2022-07-17T18:53:16;23.40;57.40
35381;DHT22;21486;51.916;8.378;2022-07-17T18:55:43;23.30;57.70
35381;DHT22;21486;51.916;8.378;2022-07-17T18:58:09;23.20;57.10
35381;DHT22;21486;51.916;8.378;2022-07-17T19:00:35;23.10;58.30
35381;DHT22;21486;51.916;8.378;2022-07-17T19:03:01;23.00;58.40
35381;DHT22;21486;51.916;8.378;2022-07-17T19:05:27;23.00;58.30
35381;DHT22;21486;51.916;8.378;2022-07-17T19:07:54;22.90;59.00
35381;DHT22;21486;51.916;8.378;2022-07-17T19:10:19;22.70;60.20
35381;DHT22;21486;51.916;8.378;2022-07-17T19:12:45;22.60;61.50
35381;DHT22;21486;51.916;8.378;2022-07-17T19:15:11;22.60;60.10
35381;DHT22;21486;51.916;8.378;2022-07-17T19:17:36;22.40;62.10
35381;DHT22;21486;51.916;8.378;2022-07-17T19:20:03;22.30;63.30
35381;DHT22;21486;51.916;8.378;2022-07-17T19:22:29;22.20;64.30
35381;DHT22;21486;51.916;8.378;2022-07-17T19:24:57;22.20;63.80
35381;DHT22;21486;51.916;8.378;2022-07-17T19:27:23;22.00;65.50
35381;DHT22;21486;51.916;8.378;2022-07-17T19:29:48;21.90;65.30
35381;DHT22;21486;51.916;8.378;2022-07-17T19:32:14;21.90;64.10
35381;DHT22;21486;51.916;8.378;2022-07-17T19:34:43;21.80;65.30
35381;DHT22;21486;51.916;8.378;2022-07-17T19:37:08;21.70;65.80
35381;DHT22;21486;51.916;8.378;2022-07-17T19:39:34;21.60;66.00
35381;DHT22;21486;51.916;8.378;2022-07-17T19:42:00;21.50;66.40
35381;DHT22;21486;51.916;8.378;2022-07-17T19:44:25;21.40;62.30
35381;DHT22;21486;51.916;8.378;2022-07-17T19:46:51;21.50;62.30
35381;DHT22;21486;51.916;8.378;2022-07-17T19:49:16;21.50;62.20
35381;DHT22;21486;51.916;8.378;2022-07-17T19:51:43;21.50;61.80
35381;DHT22;21486;51.916;8.378;2022-07-17T19:54:08;21.50;62.20
35381;DHT22;21486;51.916;8.378;2022-07-17T19:56:34;21.40;64.90
35381;DHT22;21486;51.916;8.378;2022-07-17T19:59:00;21.20;66.50
35381;DHT22;21486;51.916;8.378;2022-07-17T20:01:25;21.20;62.20
35381;DHT22;21486;51.916;8.378;2022-07-17T20:03:52;21.10;65.40
35381;DHT22;21486;51.916;8.378;2022-07-17T20:06:18;21.00;64.90
35381;DHT22;21486;51.916;8.378;2022-07-17T20:08:44;20.90;65.40
35381;DHT22;21486;51.916;8.378;2022-07-17T20:11:10;20.80;66.80
35381;DHT22;21486;51.916;8.378;2022-07-17T20:13:36;20.70;66.90
35381;DHT22;21486;51.916;8.378;2022-07-17T20:16:02;20.60;68.50
35381;DHT22;21486;51.916;8.378;2022-07-17T20:18:30;20.50;69.30
35381;DHT22;21486;51.916;8.378;2022-07-17T20:20:56;20.30;69.70
35381;DHT22;21486;51.916;8.378;2022-07-17T20:23:22;20.30;69.30
35381;DHT22;21486;51.916;8.378;2022-07-17T20:25:48;20.20;70.90
35381;DHT22;21486;51.916;8.378;2022-07-17T20:33:09;20.10;71.70
35381;DHT22;21486;51.916;8.378;2022-07-17T20:35:35;19.80;73.00
35381;DHT22;21486;51.916;8.378;2022-07-17T20:38:00;19.70;72.90
35381;DHT22;21486;51.916;8.378;2022-07-17T20:40:27;19.70;73.20
35381;DHT22;21486;51.916;8.378;2022-07-17T22:15:26;19.60;74.10
35381;DHT22;21486;51.916;8.378;2022-07-17T22:17:52;17.10;90.90
35381;DHT22;21486;51.916;8.378;2022-07-17T22:20:18;16.80;90.90
35381;DHT22;21486;51.916;8.378;2022-07-17T22:22:44;16.90;91.20
35381;DHT22;21486;51.916;8.378;2022-07-17T22:25:10;16.80;91.00
35381;DHT22;21486;51.916;8.378;2022-07-17T22:27:36;16.80;91.30
35381;DHT22;21486;51.916;8.378;2022-07-17T22:30:04;16.80;91.60
35381;DHT22;21486;51.916;8.378;2022-07-17T22:32:30;16.90;91.80
35381;DHT22;21486;51.916;8.378;2022-07-17T22:34:55;17.00;91.90
35381;DHT22;21486;51.916;8.378;2022-07-17T22:37:21;17.00;92.10
35381;DHT22;21486;51.916;8.378;2022-07-17T22:39:47;16.90;92.30
35381;DHT22;21486;51.916;8.378;2022-07-17T22:42:12;16.90;92.60
35381;DHT22;21486;51.916;8.378;2022-07-17T22:44:38;16.80;92.90
35381;DHT22;21486;51.916;8.378;2022-07-17T22:47:03;16.80;93.10
35381;DHT22;21486;51.916;8.378;2022-07-17T22:49:29;16.70;93.10
35381;DHT22;21486;51.916;8.378;2022-07-17T22:51:54;16.70;93.40
35381;DHT22;21486;51.916;8.378;2022-07-17T22:54:20;16.60;93.70
35381;DHT22;21486;51.916;8.378;2022-07-17T22:56:46;16.50;94.10
35381;DHT22;21486;51.916;8.378;2022-07-17T22:59:11;16.50;94.40
35381;DHT22;21486;51.916;8.378;2022-07-17T23:01:37;16.50;94.50
35381;DHT22;21486;51.916;8.378;2022-07-17T23:04:03;16.50;94.80
35381;DHT22;21486;51.916;8.378;2022-07-17T23:06:29;16.50;94.60
35381;DHT22;21486;51.916;8.378;2022-07-17T23:08:54;16.60;94.30
35381;DHT22;21486;51.916;8.378;2022-07-17T23:11:20;16.70;94.30
35381;DHT22;21486;51.916;8.378;2022-07-17T23:13:46;16.80;94.20
35381;DHT22;21486;51.916;8.378;2022-07-17T23:16:11;16.70;94.80
35381;DHT22;21486;51.916;8.378;2022-07-17T23:18:37;16.50;95.10
35381;DHT22;21486;51.916;8.378;2022-07-17T23:21:03;16.40;95.90
35381;DHT22;21486;51.916;8.378;2022-07-17T23:23:28;16.50;96.00
35381;DHT22;21486;51.916;8.378;2022-07-17T23:25:54;16.40;96.70
35381;DHT22;21486;51.916;8.378;2022-07-17T23:28:19;16.40;96.70
35381;DHT22;21486;51.916;8.378;2022-07-17T23:30:45;16.30;97.00
35381;DHT22;21486;51.916;8.378;2022-07-17T23:33:10;16.40;96.50
35381;DHT22;21486;51.916;8.378;2022-07-17T23:35:36;16.50;96.70
35381;DHT22;21486;51.916;8.378;2022-07-17T23:38:02;16.30;97.50
